createdAt,value
2023-05-01T00:02:24.230Z,91.85
2023-05-01T00:04:51.747Z,91.42
2023-05-01T00:07:19.178Z,91.81
2023-05-01T00:09:46.960Z,91.82
2023-05-01T00:12:14.763Z,91.60
2023-05-01T00:14:42.426Z,91.57
2023-05-01T00:17:10.218Z,91.62
2023-05-01T00:19:37.715Z,91.56
2023-05-01T00:22:05.058Z,91.17
2023-05-01T00:24:32.453Z,91.38
2023-05-01T00:26:59.882Z,91.52
2023-05-01T00:29:27.293Z,91.27
2023-05-01T00:31:55.432Z,91.30
2023-05-01T00:34:23.095Z,90.91
2023-05-01T00:36:51.044Z,90.54
2023-05-01T00:39:18.307Z,90.88
2023-05-01T00:41:45.723Z,90.38
2023-05-01T00:44:13.088Z,90.54
2023-05-01T00:46:40.753Z,90.50
2023-05-01T00:49:08.236Z,90.86
2023-05-01T00:51:36.139Z,90.56
2023-05-01T00:54:03.919Z,90.38
2023-05-01T00:56:31.855Z,90.45
2023-05-01T00:59:00.083Z,89.89
2023-05-01T01:01:29.078Z,90.26
2023-05-01T01:03:56.911Z,89.99
2023-05-01T01:07:09.621Z,90.13
2023-05-01T01:09:55.669Z,90.05
2023-05-01T01:12:32.839Z,90.14
2023-05-01T01:15:19.202Z,90.60
2023-05-01T01:18:22.657Z,90.26
2023-05-01T01:21:07.217Z,90.33
2023-05-01T01:23:53.737Z,90.45
2023-05-01T01:26:38.994Z,90.75
2023-05-01T01:29:38.996Z,90.59
2023-05-01T01:32:06.101Z,90.85
2023-05-01T01:34:49.276Z,90.87
2023-05-01T01:37:33.130Z,91.23
2023-05-01T01:40:05.580Z,90.67
2023-05-01T01:42:42.462Z,90.61
2023-05-01T01:45:16.033Z,91.01
2023-05-01T01:47:45.304Z,90.41
2023-05-01T01:50:15.441Z,90.80
2023-05-01T01:52:45.716Z,90.75
2023-05-01T01:55:15.486Z,90.86
2023-05-01T01:57:45.932Z,90.90
2023-05-01T02:00:14.608Z,91.19
2023-05-01T02:02:47.175Z,90.75
2023-05-01T02:05:18.142Z,90.76
2023-05-01T02:07:48.957Z,90.27
2023-05-01T02:10:16.965Z,90.11
2023-05-01T02:12:47.278Z,90.01
2023-05-01T02:15:18.612Z,89.35
2023-05-01T02:17:46.540Z,88.85
2023-05-01T02:20:14.180Z,88.27
2023-05-01T02:22:42.730Z,88.75
2023-05-01T02:25:13.310Z,89.38
2023-05-01T02:28:07.822Z,89.19
2023-05-01T02:30:35.178Z,89.17
2023-05-01T02:33:02.588Z,88.94
2023-05-01T02:35:29.968Z,88.97
2023-05-01T02:37:57.595Z,88.99
2023-05-01T02:40:25.442Z,88.12
2023-05-01T02:42:53.640Z,88.77
2023-05-01T02:45:25.167Z,87.78
2023-05-01T02:48:00.137Z,87.98
2023-05-01T02:50:46.788Z,87.54
2023-05-01T02:53:15.916Z,87.95
2023-05-01T02:55:50.291Z,87.00
2023-05-01T02:58:21.108Z,87.17
2023-05-01T03:00:51.799Z,87.56
2023-05-01T03:03:20.511Z,87.32
2023-05-01T03:05:48.186Z,86.88
2023-05-01T03:08:15.858Z,86.69
2023-05-01T03:10:43.605Z,86.03
2023-05-01T03:13:11.897Z,86.12
2023-05-01T03:15:39.867Z,85.33
2023-05-01T03:18:07.230Z,85.08
2023-05-01T03:20:34.849Z,85.47
2023-05-01T03:23:03.574Z,84.84
2023-05-01T03:25:31.598Z,85.83
2023-05-01T03:28:17.700Z,85.30
2023-05-01T03:30:45.585Z,85.44
2023-05-01T03:33:13.246Z,85.25
2023-05-01T03:38:09.055Z,85.15
2023-05-01T03:41:05.821Z,85.08
2023-05-01T03:43:51.612Z,85.13
2023-05-01T03:46:31.306Z,85.07
2023-05-01T03:48:58.879Z,84.51
2023-05-01T03:51:27.663Z,83.11
2023-05-01T03:53:59.192Z,82.36
2023-05-01T03:56:35.893Z,83.18
2023-05-01T03:59:05.495Z,82.74
2023-05-01T04:01:34.020Z,82.74
2023-05-01T04:04:02.440Z,81.69
2023-05-01T04:06:30.379Z,82.29
2023-05-01T04:08:57.800Z,81.63
2023-05-01T04:11:25.132Z,81.50
2023-05-01T04:13:52.704Z,81.67
2023-05-01T04:16:20.685Z,80.95
2023-05-01T04:18:48.345Z,81.32
2023-05-01T04:21:17.890Z,79.74
2023-05-01T04:23:49.410Z,80.09
2023-05-01T04:26:17.048Z,80.95
2023-05-01T04:28:45.238Z,80.93
2023-05-01T04:31:15.523Z,79.97
2023-05-01T04:33:42.931Z,79.78
2023-05-01T04:36:10.301Z,79.59
2023-05-01T04:38:37.686Z,79.05
2023-05-01T04:41:08.313Z,78.91
2023-05-01T04:43:35.812Z,79.05
2023-05-01T04:46:05.134Z,78.84
2023-05-01T04:48:33.382Z,78.28
2023-05-01T04:51:01.114Z,78.30
2023-05-01T04:53:32.274Z,77.49
2023-05-01T04:55:59.808Z,77.99
2023-05-01T04:58:28.081Z,76.86
2023-05-01T05:01:00.476Z,76.63
2023-05-01T05:03:27.886Z,76.99
2023-05-01T05:05:55.908Z,76.39
2023-05-01T05:08:24.453Z,74.85
2023-05-01T05:11:02.420Z,74.13
2023-05-01T05:13:52.993Z,74.49
2023-05-01T05:16:20.690Z,74.56
2023-05-01T05:19:06.486Z,73.43
2023-05-01T05:21:37.895Z,73.37
2023-05-01T05:24:05.404Z,73.40
2023-05-01T05:26:33.136Z,73.06
2023-05-01T05:29:03.182Z,72.47
2023-05-01T05:31:31.034Z,72.84
2023-05-01T05:33:59.195Z,72.71
2023-05-01T05:36:27.885Z,72.42
2023-05-01T05:38:55.690Z,72.78
2023-05-01T05:41:23.240Z,72.17
2023-05-01T05:43:54.672Z,71.97
2023-05-01T05:46:22.133Z,70.78
2023-05-01T05:48:49.638Z,71.06
2023-05-01T05:51:17.501Z,70.98
2023-05-01T05:53:45.011Z,70.46
2023-05-01T05:56:12.882Z,70.46
2023-05-01T05:58:40.264Z,69.66
2023-05-01T06:01:09.643Z,69.49
2023-05-01T06:03:38.824Z,69.26
2023-05-01T06:06:06.515Z,68.78
2023-05-01T06:08:35.661Z,67.43
2023-05-01T06:11:05.348Z,68.03
2023-05-01T06:13:33.157Z,67.50
2023-05-01T06:16:01.592Z,65.55
2023-05-01T06:18:30.392Z,66.64
2023-05-01T06:20:57.788Z,66.58
2023-05-01T06:23:25.135Z,66.30
2023-05-01T06:26:10.785Z,66.04
2023-05-01T06:28:38.173Z,65.23
2023-05-01T06:31:05.802Z,64.61
2023-05-01T06:33:37.060Z,64.97
2023-05-01T06:36:16.449Z,65.20
2023-05-01T06:38:49.007Z,64.61
2023-05-01T06:41:16.773Z,62.55
2023-05-01T06:43:45.334Z,64.37
2023-05-01T06:46:31.260Z,64.98
2023-05-01T06:48:58.679Z,64.85
2023-05-01T06:51:26.250Z,64.88
2023-05-01T06:53:53.552Z,65.26
2023-05-01T06:56:22.029Z,64.32
2023-05-01T06:58:49.556Z,64.35
2023-05-01T07:01:17.890Z,63.89
2023-05-01T07:03:45.329Z,62.68
2023-05-01T07:06:12.669Z,62.84
2023-05-01T07:08:40.097Z,63.07
2023-05-01T07:11:07.902Z,61.92
2023-05-01T07:13:35.237Z,61.30
2023-05-01T07:16:02.697Z,60.18
2023-05-01T07:18:30.266Z,60.24
2023-05-01T07:20:57.820Z,60.04
2023-05-01T07:23:25.794Z,59.24
2023-05-01T07:25:53.336Z,58.51
2023-05-01T07:28:22.106Z,58.04
2023-05-01T07:30:49.507Z,57.73
2023-05-01T07:33:16.934Z,57.30
2023-05-01T07:35:44.306Z,57.95
2023-05-01T07:38:30.604Z,56.25
2023-05-01T07:40:57.878Z,56.65
2023-05-01T07:43:25.251Z,57.11
2023-05-01T07:46:00.731Z,56.68
2023-05-01T07:48:29.093Z,57.39
2023-05-01T07:50:57.326Z,57.48
2023-05-01T07:53:24.676Z,56.35
2023-05-01T07:55:52.139Z,56.44
2023-05-01T07:58:19.487Z,55.67
2023-05-01T08:00:46.753Z,55.26
2023-05-01T08:03:14.334Z,55.38
2023-05-01T08:05:42.288Z,54.04
2023-05-01T08:08:09.942Z,54.79
2023-05-01T08:10:37.365Z,53.68
2023-05-01T08:13:04.681Z,54.03
2023-05-01T08:15:32.043Z,53.97
2023-05-01T08:17:59.421Z,53.96
2023-05-01T08:20:26.698Z,54.27
2023-05-01T08:22:54.100Z,53.07
2023-05-01T08:25:21.498Z,53.58
2023-05-01T08:27:49.708Z,53.92
2023-05-01T08:30:17.112Z,54.08
2023-05-01T08:32:44.578Z,53.64
2023-05-01T08:35:11.980Z,51.21
2023-05-01T08:37:39.387Z,51.78
2023-05-01T08:40:09.283Z,52.06
2023-05-01T08:42:37.736Z,51.73
2023-05-01T08:45:08.185Z,51.63
2023-05-01T08:47:41.105Z,51.94
2023-05-01T08:50:12.190Z,51.62
2023-05-01T08:52:45.899Z,51.93
2023-05-01T08:55:16.615Z,52.11
2023-05-01T08:57:48.741Z,51.89
2023-05-01T09:00:21.179Z,52.44
2023-05-01T09:02:50.284Z,52.58
2023-05-01T09:05:19.293Z,52.45
2023-05-01T09:07:47.571Z,52.29
2023-05-01T09:10:17.867Z,52.32
2023-05-01T09:12:49.534Z,52.83
2023-05-01T09:15:17.065Z,52.28
2023-05-01T09:17:45.275Z,52.38
2023-05-01T09:20:12.809Z,52.35
2023-05-01T09:22:40.388Z,51.77
2023-05-01T09:25:08.097Z,51.41
2023-05-01T09:27:36.124Z,51.07
2023-05-01T09:30:04.356Z,50.91
2023-05-01T09:32:32.774Z,50.60
2023-05-01T09:35:15.005Z,50.38
2023-05-01T09:37:42.541Z,50.16
2023-05-01T09:40:14.812Z,50.20
2023-05-01T09:42:50.973Z,49.65
2023-05-01T09:45:19.751Z,49.95
2023-05-01T09:47:47.684Z,50.28
2023-05-01T09:50:34.747Z,49.26
2023-05-01T09:53:05.303Z,50.14
2023-05-01T09:55:35.050Z,49.89
2023-05-01T09:58:02.879Z,50.10
2023-05-01T10:00:30.548Z,50.05
2023-05-01T10:02:58.086Z,49.24
2023-05-01T10:05:25.589Z,49.38
2023-05-01T10:08:02.579Z,48.83
2023-05-01T10:10:30.302Z,49.08
2023-05-01T10:13:13.982Z,48.59
2023-05-01T10:15:41.662Z,48.64
2023-05-01T10:18:13.651Z,48.49
2023-05-01T10:20:41.344Z,48.99
2023-05-01T10:23:09.029Z,49.07
2023-05-01T10:25:36.989Z,49.19
2023-05-01T10:28:07.714Z,50.08
2023-05-01T10:30:36.241Z,49.46
2023-05-01T10:33:03.888Z,49.96
2023-05-01T10:35:40.893Z,49.85
2023-05-01T10:38:11.892Z,50.40
2023-05-01T10:40:39.242Z,49.43
2023-05-01T10:43:16.117Z,49.45
2023-05-01T10:45:47.859Z,49.94
2023-05-01T10:48:40.538Z,49.81
2023-05-01T10:51:20.717Z,48.11
2023-05-01T10:53:49.085Z,48.43
2023-05-01T10:56:24.349Z,49.90
2023-05-01T10:58:59.047Z,49.40
2023-05-01T11:01:35.462Z,48.71
2023-05-01T11:04:24.976Z,48.18
2023-05-01T11:07:14.018Z,49.10
2023-05-01T11:09:55.603Z,48.65
2023-05-01T11:12:46.950Z,49.71
2023-05-01T11:15:30.775Z,48.56
2023-05-01T11:17:59.594Z,48.87
2023-05-01T11:20:26.969Z,49.82
2023-05-01T11:22:56.104Z,49.27
2023-05-01T11:25:24.548Z,48.33
2023-05-01T11:27:57.006Z,48.41
2023-05-01T11:30:24.873Z,49.35
2023-05-01T11:32:52.748Z,48.81
2023-05-01T11:35:21.255Z,47.87
2023-05-01T11:37:51.362Z,47.45
2023-05-01T11:40:29.276Z,47.51
2023-05-01T11:43:04.013Z,48.47
2023-05-01T11:45:32.132Z,47.56
2023-05-01T11:48:02.889Z,46.58
2023-05-01T11:50:36.634Z,46.52
2023-05-01T11:53:11.904Z,47.00
2023-05-01T11:55:40.479Z,46.11
2023-05-01T11:58:08.367Z,46.23
2023-05-01T12:00:38.430Z,46.24
2023-05-01T12:03:11.090Z,45.77
2023-05-01T12:05:44.085Z,45.38
2023-05-01T12:08:13.242Z,46.16
2023-05-01T12:10:43.829Z,46.80
2023-05-01T12:13:13.725Z,46.62
2023-05-01T12:15:47.076Z,45.29
2023-05-01T12:18:16.100Z,45.75
2023-05-01T12:20:45.930Z,45.94
2023-05-01T12:23:16.371Z,45.85
2023-05-01T12:25:45.367Z,45.90
2023-05-01T12:28:18.453Z,45.55
2023-05-01T12:30:48.204Z,46.10
2023-05-01T12:33:17.829Z,46.27
2023-05-01T12:35:47.068Z,46.84
2023-05-01T12:38:20.532Z,47.30
2023-05-01T12:40:59.775Z,47.24
2023-05-01T12:46:24.269Z,47.25
2023-05-01T12:48:54.278Z,48.32
2023-05-01T12:51:22.347Z,47.88
2023-05-01T12:53:50.636Z,48.61
2023-05-01T12:56:25.917Z,48.96
2023-05-01T12:58:54.043Z,48.48
2023-05-01T13:01:29.391Z,47.78
2023-05-01T13:03:58.321Z,47.33
2023-05-01T13:06:37.020Z,47.29
2023-05-01T13:09:10.948Z,47.30
2023-05-01T13:11:39.039Z,48.02
2023-05-01T13:14:10.424Z,48.33
2023-05-01T13:16:47.089Z,48.01
2023-05-01T13:19:15.822Z,48.78
2023-05-01T13:21:55.073Z,49.01
2023-05-01T13:24:23.750Z,49.91
2023-05-01T13:27:03.495Z,49.70
2023-05-01T13:29:33.544Z,49.48
2023-05-01T13:32:01.500Z,49.59
2023-05-01T13:34:31.721Z,49.58
2023-05-01T13:37:02.519Z,49.13
2023-05-01T13:39:30.286Z,48.76
2023-05-01T13:42:06.879Z,48.95
2023-05-01T13:44:42.477Z,48.74
2023-05-01T13:47:17.255Z,48.78
2023-05-01T13:49:45.874Z,48.53
2023-05-01T13:52:18.374Z,48.95
2023-05-01T13:54:47.332Z,48.80
2023-05-01T13:57:16.636Z,49.05
2023-05-01T13:59:46.425Z,49.44
2023-05-01T14:02:28.154Z,49.47
2023-05-01T14:04:58.579Z,49.66
2023-05-01T14:07:28.215Z,49.06
2023-05-01T14:10:02.631Z,48.48
2023-05-01T14:12:32.595Z,47.94
2023-05-01T14:15:03.728Z,48.18
2023-05-01T14:17:36.328Z,48.99
2023-05-01T14:20:07.939Z,49.29
2023-05-01T14:22:45.176Z,49.87
2023-05-01T14:25:20.832Z,50.44
2023-05-01T14:27:50.247Z,50.40
2023-05-01T14:30:40.346Z,50.87
2023-05-01T14:33:12.944Z,50.97
2023-05-01T14:35:59.079Z,51.64
2023-05-01T14:38:27.906Z,52.11
2023-05-01T14:41:15.417Z,51.99
2023-05-01T14:43:44.988Z,52.13
2023-05-01T14:46:14.067Z,52.42
2023-05-01T14:48:42.792Z,52.78
2023-05-01T14:51:13.223Z,53.18
2023-05-01T14:53:44.110Z,53.37
2023-05-01T14:56:12.996Z,53.46
2023-05-01T14:58:40.518Z,53.33
2023-05-01T15:01:08.288Z,53.70
2023-05-01T15:03:41.202Z,53.59
2023-05-01T15:08:54.016Z,53.96
2023-05-01T15:11:21.882Z,54.09
2023-05-01T15:13:50.630Z,54.12
2023-05-01T15:16:18.010Z,54.37
2023-05-01T15:18:45.379Z,54.26
2023-05-01T15:21:12.956Z,55.08
2023-05-01T15:23:45.358Z,54.91
2023-05-01T15:26:12.748Z,54.72
2023-05-01T15:28:40.292Z,55.06
2023-05-01T15:31:07.767Z,54.96
2023-05-01T15:33:35.280Z,54.97
2023-05-01T15:36:02.706Z,55.05
2023-05-01T15:38:30.446Z,54.97
2023-05-01T15:40:57.889Z,55.07
2023-05-01T15:43:25.158Z,55.08
2023-05-01T15:45:53.085Z,55.82
2023-05-01T15:48:20.542Z,55.87
2023-05-01T15:50:49.210Z,56.06
2023-05-01T15:53:17.445Z,56.48
2023-05-01T15:55:44.789Z,56.67
2023-05-01T15:58:12.175Z,56.56
2023-05-01T16:03:24.261Z,56.34
2023-05-01T16:05:51.713Z,57.29
2023-05-01T16:08:19.559Z,57.47
2023-05-01T16:10:47.057Z,58.42
2023-05-01T16:13:14.399Z,57.91
2023-05-01T16:15:41.754Z,57.81
2023-05-01T16:18:10.365Z,58.04
2023-05-01T16:20:43.197Z,58.93
2023-05-01T16:23:12.386Z,57.87
2023-05-01T16:25:43.370Z,57.87
2023-05-01T16:28:11.663Z,58.15
2023-05-01T16:30:42.597Z,58.23
2023-05-01T16:33:18.969Z,58.39
2023-05-01T16:35:48.889Z,58.47
2023-05-01T16:38:17.658Z,59.32
2023-05-01T16:40:46.664Z,59.20
2023-05-01T16:43:14.322Z,58.58
2023-05-01T16:45:42.194Z,58.72
2023-05-01T16:48:09.824Z,58.22
2023-05-01T16:50:41.519Z,58.67
2023-05-01T16:53:08.935Z,59.33
2023-05-01T16:55:36.413Z,59.15
2023-05-01T16:58:03.732Z,58.65
2023-05-01T17:00:31.597Z,58.53
2023-05-01T17:02:59.297Z,58.63
2023-05-01T17:05:45.090Z,58.09
2023-05-01T17:08:12.594Z,58.07
2023-05-01T17:10:39.896Z,58.33
2023-05-01T17:13:08.056Z,58.02
2023-05-01T17:15:36.727Z,58.52
2023-05-01T17:18:04.141Z,58.39
2023-05-01T17:20:31.516Z,58.13
2023-05-01T17:22:59.180Z,58.08
2023-05-01T17:25:26.475Z,58.31
2023-05-01T17:27:53.990Z,58.17
2023-05-01T17:30:21.407Z,58.16
2023-05-01T17:32:48.781Z,58.04
2023-05-01T17:35:16.928Z,58.19
2023-05-01T17:37:45.243Z,58.41
2023-05-01T17:40:12.774Z,58.67
2023-05-01T17:42:40.562Z,58.85
2023-05-01T17:45:10.242Z,59.00
2023-05-01T17:47:43.068Z,59.00
2023-05-01T17:50:11.921Z,58.98
2023-05-01T17:52:40.583Z,59.05
2023-05-01T17:55:08.364Z,59.57
2023-05-01T17:57:35.771Z,59.65
2023-05-01T18:00:04.635Z,59.37
2023-05-01T18:02:39.970Z,59.66
2023-05-01T18:05:07.612Z,59.74
2023-05-01T18:07:34.944Z,59.97
2023-05-01T18:10:02.517Z,59.97
2023-05-01T18:12:33.603Z,60.48
2023-05-01T18:15:00.856Z,60.70
2023-05-01T18:17:28.103Z,60.16
2023-05-01T18:19:55.362Z,60.03
2023-05-01T18:22:22.971Z,60.42
2023-05-01T18:24:50.553Z,59.63
2023-05-01T18:27:17.839Z,59.44
2023-05-01T18:29:45.108Z,59.15
2023-05-01T18:32:14.010Z,58.95
2023-05-01T18:34:42.357Z,58.52
2023-05-01T18:37:09.732Z,58.51
2023-05-01T18:39:37.048Z,58.78
2023-05-01T18:42:04.527Z,58.23
2023-05-01T18:44:31.919Z,59.05
2023-05-01T18:46:59.231Z,58.32
2023-05-01T18:49:26.600Z,58.42
2023-05-01T18:51:54.010Z,57.96
2023-05-01T18:54:23.179Z,57.80
2023-05-01T18:56:50.763Z,57.77
2023-05-01T18:59:18.150Z,57.63
2023-05-01T19:01:45.818Z,57.78
2023-05-01T19:04:13.261Z,57.62
2023-05-01T19:06:41.179Z,57.79
2023-05-01T19:09:08.462Z,58.06
2023-05-01T19:11:35.609Z,57.87
2023-05-01T19:14:02.796Z,57.69
2023-05-01T19:16:30.259Z,57.84
2023-05-01T19:18:57.637Z,58.05
2023-05-01T19:21:25.218Z,57.92
2023-05-01T19:23:52.626Z,57.88
2023-05-01T19:26:19.989Z,57.98
2023-05-01T19:28:47.531Z,58.16
2023-05-01T19:33:59.782Z,58.84
2023-05-01T19:36:27.283Z,59.26
2023-05-01T19:38:54.613Z,59.26
2023-05-01T19:44:07.014Z,59.38
2023-05-01T19:46:34.348Z,58.97
2023-05-01T19:49:01.775Z,59.64
2023-05-01T19:51:29.046Z,59.27
2023-05-01T19:53:57.218Z,59.30
2023-05-01T19:56:25.552Z,59.40
2023-05-01T19:58:56.083Z,59.36
2023-05-01T20:01:23.819Z,59.05
2023-05-01T20:03:51.328Z,59.12
2023-05-01T20:06:18.620Z,59.37
2023-05-01T20:08:47.576Z,59.13
2023-05-01T20:11:15.217Z,59.44
2023-05-01T20:13:42.705Z,59.26
2023-05-01T20:16:10.225Z,59.34
2023-05-01T20:18:37.629Z,59.57
2023-05-01T20:21:06.333Z,59.22
2023-05-01T20:23:34.701Z,59.20
2023-05-01T20:26:01.973Z,59.26
2023-05-01T20:28:29.548Z,59.33
2023-05-01T20:30:57.038Z,59.54
2023-05-01T20:33:24.909Z,59.37
2023-05-01T20:35:52.391Z,59.45
2023-05-01T20:38:19.779Z,59.55
2023-05-01T20:40:47.067Z,59.85
2023-05-01T20:43:14.481Z,59.73
2023-05-01T20:45:41.858Z,59.85
2023-05-01T20:48:09.328Z,59.84
2023-05-01T20:50:36.756Z,60.00
2023-05-01T20:53:04.259Z,60.05
2023-05-01T20:55:31.592Z,60.06
2023-05-01T20:57:58.976Z,60.33
2023-05-01T21:00:26.408Z,60.66
2023-05-01T21:02:54.002Z,60.85
2023-05-01T21:05:21.635Z,60.71
2023-05-01T21:07:49.043Z,61.00
2023-05-01T21:10:16.793Z,61.03
2023-05-01T21:12:44.479Z,61.11
2023-05-01T21:15:12.107Z,61.53
2023-05-01T21:17:43.573Z,61.39
2023-05-01T21:20:24.847Z,61.33
2023-05-01T21:22:52.237Z,61.27
2023-05-01T21:25:27.631Z,61.57
2023-05-01T21:27:55.021Z,61.27
2023-05-01T21:30:33.976Z,61.26
2023-05-01T21:33:21.673Z,61.35
2023-05-01T21:35:49.491Z,61.01
2023-05-01T21:38:16.912Z,61.41
2023-05-01T21:40:46.295Z,61.32
2023-05-01T21:43:13.882Z,61.17
2023-05-01T21:45:44.815Z,61.61
2023-05-01T21:48:15.367Z,61.56
2023-05-01T21:50:42.890Z,61.72
2023-05-01T21:53:10.293Z,61.72
2023-05-01T21:55:56.157Z,61.99
2023-05-01T21:58:24.952Z,62.15
2023-05-01T22:00:52.505Z,62.24
2023-05-01T22:03:21.466Z,62.56
2023-05-01T22:05:48.796Z,62.31
2023-05-01T22:08:16.156Z,62.19
2023-05-01T22:10:45.151Z,62.28
2023-05-01T22:13:12.501Z,62.57
2023-05-01T22:15:39.836Z,62.02
2023-05-01T22:18:07.330Z,62.50
2023-05-01T22:20:34.682Z,62.38
2023-05-01T22:23:02.009Z,62.61
2023-05-01T22:25:29.386Z,62.53
2023-05-01T22:27:56.984Z,62.65
2023-05-01T22:30:24.325Z,62.38
2023-05-01T22:32:51.809Z,62.30
2023-05-01T22:35:19.185Z,62.51
2023-05-01T22:37:46.518Z,62.49
2023-05-01T22:40:13.894Z,62.55
2023-05-01T22:42:41.260Z,62.25
2023-05-01T22:45:09.125Z,62.22
2023-05-01T22:47:55.348Z,62.50
2023-05-01T22:50:22.667Z,62.45
2023-05-01T22:52:49.975Z,62.30
2023-05-01T22:55:17.452Z,62.13
2023-05-01T22:57:44.885Z,62.10
2023-05-01T23:00:13.440Z,62.32
2023-05-01T23:02:41.221Z,62.32
2023-05-01T23:05:10.137Z,62.19
2023-05-01T23:07:37.547Z,62.22
2023-05-01T23:10:05.709Z,62.35
2023-05-01T23:12:33.385Z,62.17
2023-05-01T23:15:00.884Z,62.19
2023-05-01T23:17:35.059Z,62.22
2023-05-01T23:20:02.611Z,62.30
2023-05-01T23:22:30.852Z,61.93
2023-05-01T23:24:58.183Z,61.80
2023-05-01T23:27:25.577Z,61.99
2023-05-01T23:29:58.792Z,62.14
2023-05-01T23:32:32.197Z,62.18
2023-05-01T23:35:12.923Z,62.15
2023-05-01T23:37:40.129Z,62.11
2023-05-01T23:40:09.600Z,62.04
2023-05-01T23:42:39.257Z,61.63
2023-05-01T23:45:08.116Z,62.33
2023-05-01T23:47:37.194Z,62.14
2023-05-01T23:50:04.992Z,62.11
2023-05-01T23:52:32.614Z,62.11
2023-05-01T23:54:59.973Z,62.13
2023-05-01T23:57:27.571Z,62.17
2023-05-01T23:59:54.986Z,62.28
